Ava Foss — WDF5779 — position and weather

sailwx.info

Track history (hours):
 
Tides and Currents Weather Stations Pressure Air Temp Water Temp Dewpoint Dewpoint Depression Visibility Wind Speed Wind Dir Waves Ship Positions

Ava Foss

Owner: Foss Maritime Company, Seattle, WA. More information available from US FCC via Universal Licensing System and Coast Guard Vessel Documentation Center.

Last reported at 2015-May-30 01:32 UTC. Time now 2015-May-30 02:34 UTC.
Position N 33°51' W 118°24'.

Length 10 m; draft 2.5 m.

Type: Passenger vessel. MMSI: 367467120.

Date/timePositionNaut miles runAvg speedWind from/ knotsBaromVisibWave heightAir tempDewpointWater temp
2015-May-30 01:32N 33°51' W 118°24'0 0.0
2015-May-30 00:31N 33°51' W 118°24'0 0.0
2015-May-29 23:33N 33°51' W 118°24'0 0.2
2015-May-29 22:34N 33°50' W 118°24'5 4.8
2015-May-29 21:33N 33°54' W 118°27'5 4.8
2015-May-29 20:33N 33°51' W 118°24'0 0.0
2015-May-29 19:25N 33°51' W 118°24'5 6.0
2015-May-29 18:33N 33°55' W 118°27'5 5.2
2015-May-29 17:33N 33°51' W 118°24'0 0.0
2015-May-29 16:33N 33°51' W 118°24'0 0.0
2015-May-29 15:32N 33°51' W 118°24'2 1.0
2015-May-29 13:08N 33°51' W 118°26'2 0.2
2015-May-29 01:23N 33°51' W 118°24'0 0.0
2015-May-29 00:32N 33°51' W 118°24'0 0.4
2015-May-28 23:27N 33°51' W 118°24'4 5.0
2015-May-28 22:34N 33°54' W 118°27'0 0.3
2015-May-28 21:23N 33°54' W 118°27'4 5.1
2015-May-28 20:33N 33°51' W 118°24'4 4.2
2015-May-28 19:33N 33°54' W 118°27'5 4.9
2015-May-28 18:33N 33°50' W 118°24'0 0.1
2015-May-28 17:33N 33°51' W 118°24'0 0.0
2015-May-28 16:34N 33°51' W 118°24'0 0.0
2015-May-28 02:27N 33°51' W 118°24'0 0.0
2015-May-28 01:07N 33°51' W 118°24'0 0.0
2015-May-28 00:23N 33°51' W 118°24'0 0.0
2015-May-27 23:19N 33°51' W 118°24'5 6.4
2015-May-27 22:33N 33°54' W 118°27'5 4.9
2015-May-27 21:33N 33°51' W 118°24'0 0.0
2015-May-27 20:33N 33°51' W 118°24'4 3.8
2015-May-27 19:33N 33°54' W 118°26'1 1.1
2015-May-27 18:34N 33°54' W 118°27'5 4.8
2015-May-27 17:33N 33°51' W 118°24'0 0.1
2015-May-27 16:33N 33°51' W 118°24'0 0.0
2015-May-27 15:26N 33°51' W 118°24'1 1.2
2015-May-27 14:30N 33°51' W 118°25'1 0.6
2015-May-27 13:33N 33°51' W 118°25'2 0.2
2015-May-27 02:33N 33°51' W 118°24'0 0.0
2015-May-27 00:33N 33°51' W 118°24'0 0.0
2015-May-26 23:33N 33°51' W 118°24'0 0.0
2015-May-26 22:18N 33°51' W 118°24'0 0.0
2015-May-26 21:15N 33°51' W 118°24'0 0.0
2015-May-26 20:33N 33°51' W 118°24'0 0.0
2015-May-26 19:33N 33°51' W 118°24'0 0.0
2015-May-26 17:06N 33°51' W 118°24'0 0.0
2015-May-26 14:30N 33°51' W 118°24'0 0.0
2015-May-26 13:27N 33°51' W 118°24'0 0.0
2015-May-26 12:09N 33°51' W 118°24'0 0.0
2015-May-26 11:33N 33°51' W 118°24'0 0.0
2015-May-26 10:30N 33°51' W 118°24'0 0.0
2015-May-26 09:33N 33°51' W 118°24'1 0.7
2015-May-26 08:33N 33°51' W 118°24'4 4.5
2015-May-26 07:34N 33°54' W 118°27'5 3.4
2015-May-26 06:08N 33°51' W 118°24'0 0.0
2015-May-26 05:15N 33°51' W 118°24'0 0.0
2015-May-26 04:18N 33°51' W 118°24'0 0.0
2015-May-26 03:28N 33°51' W 118°24'5 5.3
2015-May-26 02:28N 33°55' W 118°27'5 2.5
2015-May-26 00:19N 33°51' W 118°24'0 0.0
2015-May-25 23:31N 33°51' W 118°24'0 0.0
2015-May-25 22:31N 33°51' W 118°24'0 0.0
2015-May-25 21:28N 33°51' W 118°24'0 0.0
2015-May-25 19:14N 33°51' W 118°24'5 7.8
2015-May-25 18:33N 33°52' W 118°30'5 4.2
2015-May-25 17:18N 33°51' W 118°24'5 2.4
2015-May-25 15:09N 33°55' W 118°27'2 2.5
2015-May-25 14:24N 33°53' W 118°26'3 0.3
2015-May-25 03:13N 33°51' W 118°24'1 1.6
2015-May-25 02:33N 33°51' W 118°25'1 0.5
2015-May-25 00:17N 33°51' W 118°24'0 0.6
2015-May-24 23:32N 33°51' W 118°24'0 0.4
2015-May-24 22:32N 33°51' W 118°24'0 0.0
2015-May-24 21:32N 33°51' W 118°24'0 0.1
2015-May-24 20:15N 33°50' W 118°24'0 0.0
2015-May-24 01:20N 33°51' W 118°24'0 0.0
2015-May-24 00:30N 33°51' W 118°24'0 0.0
2015-May-23 22:32N 33°51' W 118°24'0 0.0
2015-May-23 21:34N 33°51' W 118°24'1 1.3
2015-May-23 20:30N 33°51' W 118°25'4 4.1
2015-May-23 19:32N 33°55' W 118°27'5 4.7
2015-May-23 18:25N 33°51' W 118°24'0 0.0
2015-May-23 17:28N 33°51' W 118°24'0 0.0
2015-May-23 16:28N 33°51' W 118°24'0 0.0
2015-May-23 14:29N 33°51' W 118°24'2 2.5
2015-May-23 13:34N 33°51' W 118°26'2 0.4
2015-May-23 07:14N 33°51' W 118°24'0 0.0
2015-May-23 06:26N 33°51' W 118°24'0 0.0
2015-May-22 23:32N 33°51' W 118°24'0 0.0
2015-May-22 22:26N 33°51' W 118°24'0 0.0
2015-May-22 21:32N 33°51' W 118°24'0 0.0
2015-May-22 20:32N 33°51' W 118°24'0 0.0
2015-May-22 19:26N 33°51' W 118°24'0 0.0
2015-May-22 18:29N 33°51' W 118°24'0 0.0
2015-May-22 17:08N 33°51' W 118°24'5 1.1
2015-May-22 12:16N 33°55' W 118°27'5 7.0
2015-May-22 11:32N 33°50' W 118°24'3 0.3
2015-May-22 01:34N 33°53' W 118°26'3 2.8
2015-May-22 00:31N 33°51' W 118°24'0 0.0
2015-May-21 23:28N 33°51' W 118°24'0 0.0
2015-May-21 22:31N 33°51' W 118°24'6 4.8
2015-May-21 21:14N 33°54' W 118°29'6 9.0
2015-May-21 20:33N 33°51' W 118°24'0 0.0
2015-May-21 19:33N 33°51' W 118°24'2 1.7
2015-May-21 18:33N 33°51' W 118°25'4 4.2
2015-May-21 17:33N 33°55' W 118°29'1 0.7
2015-May-21 16:28N 33°54' W 118°29'5 2.5
2015-May-21 14:20N 33°50' W 118°25'1 0.1
2015-May-21 02:20N 33°51' W 118°25'4 1.3
2015-May-20 23:28N 33°55' W 118°27'5 4.4
2015-May-20 22:24N 33°51' W 118°24'6 6.5
2015-May-20 21:29N 33°54' W 118°29'6 6.4
2015-May-20 20:33N 33°51' W 118°24'0 0.4
2015-May-20 19:33N 33°51' W 118°24'5 4.5
2015-May-20 18:31N 33°55' W 118°27'5 4.9
2015-May-20 17:28N 33°51' W 118°24'6 5.0
2015-May-20 16:19N 33°55' W 118°28'5 7.1
2015-May-20 15:33N 33°51' W 118°24'3 0.4
2015-May-20 06:18N 33°53' W 118°27'1 0.5
2015-May-20 03:22N 33°55' W 118°27'5 6.2
2015-May-20 02:33N 33°51' W 118°24'0 0.0
2015-May-20 01:33N 33°51' W 118°24'  
Track history (hours):
 
Tides and Currents Weather Stations Pressure Air Temp Water Temp Dewpoint Dewpoint Depression Visibility Wind Speed Wind Dir Waves Ship Positions

Ava Foss

Owner: Foss Maritime Company, Seattle, WA. More information available from US FCC via Universal Licensing System and Coast Guard Vessel Documentation Center.

Last reported at 2015-May-30 01:32 UTC. Time now 2015-May-30 02:34 UTC.
Position N 33°51' W 118°24'.

Length 10 m; draft 2.5 m.

Type: Passenger vessel. MMSI: 367467120.

Date/timePositionNaut miles runAvg speedWind from/ knotsBaromVisibWave heightAir tempDewpointWater temp
2015-May-30 01:32N 33°51' W 118°24'0 0.0
2015-May-30 00:31N 33°51' W 118°24'0 0.0
2015-May-29 23:33N 33°51' W 118°24'0 0.2
2015-May-29 22:34N 33°50' W 118°24'5 4.8
2015-May-29 21:33N 33°54' W 118°27'5 4.8
2015-May-29 20:33N 33°51' W 118°24'0 0.0
2015-May-29 19:25N 33°51' W 118°24'5 6.0
2015-May-29 18:33N 33°55' W 118°27'5 5.2
2015-May-29 17:33N 33°51' W 118°24'0 0.0
2015-May-29 16:33N 33°51' W 118°24'0 0.0
2015-May-29 15:32N 33°51' W 118°24'2 1.0
2015-May-29 13:08N 33°51' W 118°26'2 0.2
2015-May-29 01:23N 33°51' W 118°24'0 0.0
2015-May-29 00:32N 33°51' W 118°24'0 0.4
2015-May-28 23:27N 33°51' W 118°24'4 5.0
2015-May-28 22:34N 33°54' W 118°27'0 0.3
2015-May-28 21:23N 33°54' W 118°27'4 5.1
2015-May-28 20:33N 33°51' W 118°24'4 4.2
2015-May-28 19:33N 33°54' W 118°27'5 4.9
2015-May-28 18:33N 33°50' W 118°24'0 0.1
2015-May-28 17:33N 33°51' W 118°24'0 0.0
2015-May-28 16:34N 33°51' W 118°24'0 0.0
2015-May-28 02:27N 33°51' W 118°24'0 0.0
2015-May-28 01:07N 33°51' W 118°24'0 0.0
2015-May-28 00:23N 33°51' W 118°24'0 0.0
2015-May-27 23:19N 33°51' W 118°24'5 6.4
2015-May-27 22:33N 33°54' W 118°27'5 4.9
2015-May-27 21:33N 33°51' W 118°24'0 0.0
2015-May-27 20:33N 33°51' W 118°24'4 3.8
2015-May-27 19:33N 33°54' W 118°26'1 1.1
2015-May-27 18:34N 33°54' W 118°27'5 4.8
2015-May-27 17:33N 33°51' W 118°24'0 0.1
2015-May-27 16:33N 33°51' W 118°24'0 0.0
2015-May-27 15:26N 33°51' W 118°24'1 1.2
2015-May-27 14:30N 33°51' W 118°25'1 0.6
2015-May-27 13:33N 33°51' W 118°25'2 0.2
2015-May-27 02:33N 33°51' W 118°24'0 0.0
2015-May-27 00:33N 33°51' W 118°24'0 0.0
2015-May-26 23:33N 33°51' W 118°24'0 0.0
2015-May-26 22:18N 33°51' W 118°24'0 0.0
2015-May-26 21:15N 33°51' W 118°24'0 0.0
2015-May-26 20:33N 33°51' W 118°24'0 0.0
2015-May-26 19:33N 33°51' W 118°24'0 0.0
2015-May-26 17:06N 33°51' W 118°24'0 0.0
2015-May-26 14:30N 33°51' W 118°24'0 0.0
2015-May-26 13:27N 33°51' W 118°24'0 0.0
2015-May-26 12:09N 33°51' W 118°24'0 0.0
2015-May-26 11:33N 33°51' W 118°24'0 0.0
2015-May-26 10:30N 33°51' W 118°24'0 0.0
2015-May-26 09:33N 33°51' W 118°24'1 0.7
2015-May-26 08:33N 33°51' W 118°24'4 4.5
2015-May-26 07:34N 33°54' W 118°27'5 3.4
2015-May-26 06:08N 33°51' W 118°24'0 0.0
2015-May-26 05:15N 33°51' W 118°24'0 0.0
2015-May-26 04:18N 33°51' W 118°24'0 0.0
2015-May-26 03:28N 33°51' W 118°24'5 5.3
2015-May-26 02:28N 33°55' W 118°27'5 2.5
2015-May-26 00:19N 33°51' W 118°24'0 0.0
2015-May-25 23:31N 33°51' W 118°24'0 0.0
2015-May-25 22:31N 33°51' W 118°24'0 0.0
2015-May-25 21:28N 33°51' W 118°24'0 0.0
2015-May-25 19:14N 33°51' W 118°24'5 7.8
2015-May-25 18:33N 33°52' W 118°30'5 4.2
2015-May-25 17:18N 33°51' W 118°24'5 2.4
2015-May-25 15:09N 33°55' W 118°27'2 2.5
2015-May-25 14:24N 33°53' W 118°26'3 0.3
2015-May-25 03:13N 33°51' W 118°24'1 1.6
2015-May-25 02:33N 33°51' W 118°25'1 0.5
2015-May-25 00:17N 33°51' W 118°24'0 0.6
2015-May-24 23:32N 33°51' W 118°24'0 0.4
2015-May-24 22:32N 33°51' W 118°24'0 0.0
2015-May-24 21:32N 33°51' W 118°24'0 0.1
2015-May-24 20:15N 33°50' W 118°24'0 0.0
2015-May-24 01:20N 33°51' W 118°24'0 0.0
2015-May-24 00:30N 33°51' W 118°24'0 0.0
2015-May-23 22:32N 33°51' W 118°24'0 0.0
2015-May-23 21:34N 33°51' W 118°24'1 1.3
2015-May-23 20:30N 33°51' W 118°25'4 4.1
2015-May-23 19:32N 33°55' W 118°27'5 4.7
2015-May-23 18:25N 33°51' W 118°24'0 0.0
2015-May-23 17:28N 33°51' W 118°24'0 0.0
2015-May-23 16:28N 33°51' W 118°24'0 0.0
2015-May-23 14:29N 33°51' W 118°24'2 2.5
2015-May-23 13:34N 33°51' W 118°26'2 0.4
2015-May-23 07:14N 33°51' W 118°24'0 0.0
2015-May-23 06:26N 33°51' W 118°24'0 0.0
2015-May-22 23:32N 33°51' W 118°24'0 0.0
2015-May-22 22:26N 33°51' W 118°24'0 0.0
2015-May-22 21:32N 33°51' W 118°24'0 0.0
2015-May-22 20:32N 33°51' W 118°24'0 0.0
2015-May-22 19:26N 33°51' W 118°24'0 0.0
2015-May-22 18:29N 33°51' W 118°24'0 0.0
2015-May-22 17:08N 33°51' W 118°24'5 1.1
2015-May-22 12:16N 33°55' W 118°27'5 7.0
2015-May-22 11:32N 33°50' W 118°24'3 0.3
2015-May-22 01:34N 33°53' W 118°26'3 2.8
2015-May-22 00:31N 33°51' W 118°24'0 0.0
2015-May-21 23:28N 33°51' W 118°24'0 0.0
2015-May-21 22:31N 33°51' W 118°24'6 4.8
2015-May-21 21:14N 33°54' W 118°29'6 9.0
2015-May-21 20:33N 33°51' W 118°24'0 0.0
2015-May-21 19:33N 33°51' W 118°24'2 1.7
2015-May-21 18:33N 33°51' W 118°25'4 4.2
2015-May-21 17:33N 33°55' W 118°29'1 0.7
2015-May-21 16:28N 33°54' W 118°29'5 2.5
2015-May-21 14:20N 33°50' W 118°25'1 0.1
2015-May-21 02:20N 33°51' W 118°25'4 1.3
2015-May-20 23:28N 33°55' W 118°27'5 4.4
2015-May-20 22:24N 33°51' W 118°24'6 6.5
2015-May-20 21:29N 33°54' W 118°29'6 6.4
2015-May-20 20:33N 33°51' W 118°24'0 0.4
2015-May-20 19:33N 33°51' W 118°24'5 4.5
2015-May-20 18:31N 33°55' W 118°27'5 4.9
2015-May-20 17:28N 33°51' W 118°24'6 5.0
2015-May-20 16:19N 33°55' W 118°28'5 7.1
2015-May-20 15:33N 33°51' W 118°24'3 0.4
2015-May-20 06:18N 33°53' W 118°27'1 0.5
2015-May-20 03:22N 33°55' W 118°27'5 6.2
2015-May-20 02:33N 33°51' W 118°24'0 0.0
2015-May-20 01:33N 33°51' W 118°24'  

Dump ship's entire track history